sensor_id;sensor_type;location;lat;lon;timestamp;P1;durP1;ratioP1;P2;durP2;ratioP2
151;SDS011;68;48.792;9.164;2023-04-01T00:00:17;2.78;;;1.88;;
151;SDS011;68;48.792;9.164;2023-04-01T00:02:45;3.05;;;1.98;;
151;SDS011;68;48.792;9.164;2023-04-01T00:05:12;8.57;;;2.13;;
151;SDS011;68;48.792;9.164;2023-04-01T00:07:39;4.15;;;2.05;;
151;SDS011;68;48.792;9.164;2023-04-01T00:10:07;4.63;;;1.98;;
151;SDS011;68;48.792;9.164;2023-04-01T00:12:35;3.25;;;2.25;;
151;SDS011;68;48.792;9.164;2023-04-01T00:15:03;2.78;;;1.90;;
151;SDS011;68;48.792;9.164;2023-04-01T00:17:32;2.55;;;1.90;;
151;SDS011;68;48.792;9.164;2023-04-01T00:20:00;3.00;;;2.22;;
151;SDS011;68;48.792;9.164;2023-04-01T00:22:27;3.35;;;1.90;;
151;SDS011;68;48.792;9.164;2023-04-01T00:24:54;3.58;;;2.20;;
151;SDS011;68;48.792;9.164;2023-04-01T00:27:21;3.88;;;2.15;;
151;SDS011;68;48.792;9.164;2023-04-01T00:29:48;4.35;;;2.00;;
151;SDS011;68;48.792;9.164;2023-04-01T00:32:15;5.22;;;2.42;;
151;SDS011;68;48.792;9.164;2023-04-01T00:34:41;5.32;;;2.50;;
151;SDS011;68;48.792;9.164;2023-04-01T00:37:10;3.88;;;1.90;;
151;SDS011;68;48.792;9.164;2023-04-01T00:39:37;5.20;;;1.90;;
151;SDS011;68;48.792;9.164;2023-04-01T00:42:04;2.40;;;1.95;;
151;SDS011;68;48.792;9.164;2023-04-01T00:44:32;3.85;;;2.15;;
151;SDS011;68;48.792;9.164;2023-04-01T00:47:00;5.18;;;2.72;;
151;SDS011;68;48.792;9.164;2023-04-01T00:49:28;4.65;;;1.90;;
151;SDS011;68;48.792;9.164;2023-04-01T00:52:00;4.07;;;1.92;;
151;SDS011;68;48.792;9.164;2023-04-01T00:54:30;2.55;;;2.15;;
151;SDS011;68;48.792;9.164;2023-04-01T00:56:59;2.88;;;2.00;;
151;SDS011;68;48.792;9.164;2023-04-01T00:59:29;10.05;;;3.25;;
151;SDS011;68;48.792;9.164;2023-04-01T01:01:58;4.88;;;2.30;;
151;SDS011;68;48.792;9.164;2023-04-01T01:04:27;7.18;;;2.20;;
151;SDS011;68;48.792;9.164;2023-04-01T01:06:57;5.10;;;2.50;;
151;SDS011;68;48.792;9.164;2023-04-01T01:09:34;4.28;;;2.42;;
151;SDS011;68;48.792;9.164;2023-04-01T01:12:10;4.78;;;2.20;;
151;SDS011;68;48.792;9.164;2023-04-01T01:14:43;2.83;;;2.05;;
151;SDS011;68;48.792;9.164;2023-04-01T01:17:18;2.15;;;1.80;;
151;SDS011;68;48.792;9.164;2023-04-01T01:19:57;3.13;;;1.80;;
151;SDS011;68;48.792;9.164;2023-04-01T01:22:49;3.42;;;2.17;;
151;SDS011;68;48.792;9.164;2023-04-01T01:25:31;6.82;;;2.45;;
151;SDS011;68;48.792;9.164;2023-04-01T01:28:17;3.63;;;2.50;;
151;SDS011;68;48.792;9.164;2023-04-01T01:30:58;3.00;;;2.30;;
151;SDS011;68;48.792;9.164;2023-04-01T01:33:36;4.70;;;2.30;;
151;SDS011;68;48.792;9.164;2023-04-01T01:36:13;4.38;;;2.17;;
151;SDS011;68;48.792;9.164;2023-04-01T01:38:43;5.07;;;2.28;;
151;SDS011;68;48.792;9.164;2023-04-01T01:41:12;2.95;;;2.10;;
151;SDS011;68;48.792;9.164;2023-04-01T01:43:42;3.67;;;2.53;;
151;SDS011;68;48.792;9.164;2023-04-01T01:46:13;5.40;;;2.47;;
151;SDS011;68;48.792;9.164;2023-04-01T01:48:43;3.47;;;2.00;;
151;SDS011;68;48.792;9.164;2023-04-01T01:51:11;6.38;;;2.25;;
151;SDS011;68;48.792;9.164;2023-04-01T01:53:40;5.22;;;2.40;;
151;SDS011;68;48.792;9.164;2023-04-01T01:56:07;2.85;;;2.00;;
151;SDS011;68;48.792;9.164;2023-04-01T01:58:34;5.00;;;1.90;;
151;SDS011;68;48.792;9.164;2023-04-01T02:01:06;5.10;;;2.92;;
151;SDS011;68;48.792;9.164;2023-04-01T02:03:36;4.55;;;2.20;;
151;SDS011;68;48.792;9.164;2023-04-01T02:06:06;2.50;;;1.83;;
151;SDS011;68;48.792;9.164;2023-04-01T02:08:37;3.40;;;1.88;;
151;SDS011;68;48.792;9.164;2023-04-01T02:11:08;3.88;;;2.08;;
151;SDS011;68;48.792;9.164;2023-04-01T02:13:38;4.00;;;2.15;;
151;SDS011;68;48.792;9.164;2023-04-01T02:16:11;5.07;;;1.90;;
151;SDS011;68;48.792;9.164;2023-04-01T02:18:41;3.30;;;2.05;;
151;SDS011;68;48.792;9.164;2023-04-01T02:21:11;2.72;;;2.08;;
151;SDS011;68;48.792;9.164;2023-04-01T02:23:40;3.40;;;2.10;;
151;SDS011;68;48.792;9.164;2023-04-01T02:26:08;4.93;;;1.90;;
151;SDS011;68;48.792;9.164;2023-04-01T02:28:37;4.93;;;2.15;;
151;SDS011;68;48.792;9.164;2023-04-01T02:31:06;2.75;;;1.80;;
151;SDS011;68;48.792;9.164;2023-04-01T02:33:34;5.15;;;1.80;;
151;SDS011;68;48.792;9.164;2023-04-01T02:36:02;4.05;;;2.20;;
151;SDS011;68;48.792;9.164;2023-04-01T02:38:30;2.10;;;1.80;;
151;SDS011;68;48.792;9.164;2023-04-01T02:40:59;3.78;;;2.10;;
151;SDS011;68;48.792;9.164;2023-04-01T02:43:26;3.35;;;1.80;;
151;SDS011;68;48.792;9.164;2023-04-01T02:45:53;1.92;;;1.80;;
151;SDS011;68;48.792;9.164;2023-04-01T02:48:20;3.15;;;2.03;;
151;SDS011;68;48.792;9.164;2023-04-01T02:50:47;3.55;;;1.80;;
151;SDS011;68;48.792;9.164;2023-04-01T02:53:14;1.70;;;1.60;;
151;SDS011;68;48.792;9.164;2023-04-01T02:55:41;4.30;;;1.85;;
151;SDS011;68;48.792;9.164;2023-04-01T02:58:09;2.03;;;1.90;;
151;SDS011;68;48.792;9.164;2023-04-01T03:00:36;3.17;;;1.73;;
151;SDS011;68;48.792;9.164;2023-04-01T03:03:03;2.08;;;1.88;;
151;SDS011;68;48.792;9.164;2023-04-01T03:05:30;2.60;;;2.10;;
151;SDS011;68;48.792;9.164;2023-04-01T03:07:57;2.50;;;1.80;;
151;SDS011;68;48.792;9.164;2023-04-01T03:10:23;1.70;;;1.60;;
151;SDS011;68;48.792;9.164;2023-04-01T03:12:50;3.35;;;1.63;;
151;SDS011;68;48.792;9.164;2023-04-01T03:15:18;1.85;;;1.50;;
151;SDS011;68;48.792;9.164;2023-04-01T03:17:45;2.15;;;1.70;;
151;SDS011;68;48.792;9.164;2023-04-01T03:20:12;1.83;;;1.65;;
151;SDS011;68;48.792;9.164;2023-04-01T03:22:40;3.25;;;1.63;;
151;SDS011;68;48.792;9.164;2023-04-01T03:25:07;1.88;;;1.58;;
151;SDS011;68;48.792;9.164;2023-04-01T03:27:34;4.35;;;1.77;;
151;SDS011;68;48.792;9.164;2023-04-01T03:30:01;2.85;;;1.73;;
151;SDS011;68;48.792;9.164;2023-04-01T03:32:29;2.85;;;1.70;;
151;SDS011;68;48.792;9.164;2023-04-01T03:34:56;5.20;;;1.50;;
151;SDS011;68;48.792;9.164;2023-04-01T03:37:23;5.32;;;1.70;;
151;SDS011;68;48.792;9.164;2023-04-01T03:39:50;2.28;;;1.52;;
151;SDS011;68;48.792;9.164;2023-04-01T03:42:17;2.63;;;1.60;;
151;SDS011;68;48.792;9.164;2023-04-01T03:44:44;3.65;;;1.77;;
151;SDS011;68;48.792;9.164;2023-04-01T03:47:11;2.42;;;1.63;;
151;SDS011;68;48.792;9.164;2023-04-01T03:49:39;1.85;;;1.70;;
151;SDS011;68;48.792;9.164;2023-04-01T03:52:08;2.17;;;1.50;;
151;SDS011;68;48.792;9.164;2023-04-01T03:54:35;2.28;;;1.70;;
151;SDS011;68;48.792;9.164;2023-04-01T03:57:02;2.80;;;2.00;;
151;SDS011;68;48.792;9.164;2023-04-01T03:59:29;4.13;;;1.70;;
151;SDS011;68;48.792;9.164;2023-04-01T04:01:55;3.30;;;1.77;;
151;SDS011;68;48.792;9.164;2023-04-01T04:04:22;5.13;;;2.10;;
151;SDS011;68;48.792;9.164;2023-04-01T04:06:51;4.80;;;2.00;;
151;SDS011;68;48.792;9.164;2023-04-01T04:09:17;2.80;;;1.67;;
151;SDS011;68;48.792;9.164;2023-04-01T04:11:44;9.80;;;1.83;;
151;SDS011;68;48.792;9.164;2023-04-01T04:14:11;1.83;;;1.73;;
151;SDS011;68;48.792;9.164;2023-04-01T04:16:37;2.95;;;1.85;;
151;SDS011;68;48.792;9.164;2023-04-01T04:19:04;2.28;;;1.80;;
151;SDS011;68;48.792;9.164;2023-04-01T04:21:31;6.15;;;1.80;;
151;SDS011;68;48.792;9.164;2023-04-01T04:24:00;2.03;;;1.70;;
151;SDS011;68;48.792;9.164;2023-04-01T04:26:27;3.05;;;2.00;;
151;SDS011;68;48.792;9.164;2023-04-01T04:28:54;3.50;;;1.90;;
151;SDS011;68;48.792;9.164;2023-04-01T04:31:22;7.18;;;1.70;;
151;SDS011;68;48.792;9.164;2023-04-01T04:33:50;1.88;;;1.75;;
151;SDS011;68;48.792;9.164;2023-04-01T04:36:18;3.95;;;1.55;;
151;SDS011;68;48.792;9.164;2023-04-01T04:38:45;2.20;;;1.75;;
151;SDS011;68;48.792;9.164;2023-04-01T04:41:13;2.00;;;1.67;;
151;SDS011;68;48.792;9.164;2023-04-01T04:43:48;2.15;;;1.70;;
151;SDS011;68;48.792;9.164;2023-04-01T04:46:16;8.77;;;2.10;;
151;SDS011;68;48.792;9.164;2023-04-01T04:48:42;2.47;;;1.65;;
151;SDS011;68;48.792;9.164;2023-04-01T04:51:12;2.78;;;1.60;;
151;SDS011;68;48.792;9.164;2023-04-01T04:53:40;2.05;;;1.92;;
151;SDS011;68;48.792;9.164;2023-04-01T04:56:06;7.47;;;1.85;;
151;SDS011;68;48.792;9.164;2023-04-01T04:58:35;2.75;;;1.70;;
151;SDS011;68;48.792;9.164;2023-04-01T05:01:05;2.33;;;1.77;;
151;SDS011;68;48.792;9.164;2023-04-01T05:03:33;2.38;;;1.80;;
151;SDS011;68;48.792;9.164;2023-04-01T05:06:00;4.30;;;1.70;;
151;SDS011;68;48.792;9.164;2023-04-01T05:08:26;3.08;;;1.80;;
151;SDS011;68;48.792;9.164;2023-04-01T05:10:53;2.35;;;1.85;;
151;SDS011;68;48.792;9.164;2023-04-01T05:13:20;2.10;;;1.70;;
151;SDS011;68;48.792;9.164;2023-04-01T05:15:48;4.40;;;1.77;;
151;SDS011;68;48.792;9.164;2023-04-01T05:18:15;3.03;;;1.95;;
151;SDS011;68;48.792;9.164;2023-04-01T05:20:45;2.70;;;1.90;;
151;SDS011;68;48.792;9.164;2023-04-01T05:23:13;3.17;;;1.80;;
151;SDS011;68;48.792;9.164;2023-04-01T05:25:40;1.92;;;1.58;;
151;SDS011;68;48.792;9.164;2023-04-01T05:28:07;2.03;;;1.85;;
151;SDS011;68;48.792;9.164;2023-04-01T05:30:33;2.58;;;1.75;;
151;SDS011;68;48.792;9.164;2023-04-01T05:33:02;1.90;;;1.75;;
151;SDS011;68;48.792;9.164;2023-04-01T05:35:29;6.63;;;2.30;;
151;SDS011;68;48.792;9.164;2023-04-01T05:37:56;4.53;;;1.80;;
151;SDS011;68;48.792;9.164;2023-04-01T05:40:23;3.75;;;1.98;;
151;SDS011;68;48.792;9.164;2023-04-01T05:42:50;2.10;;;2.00;;
151;SDS011;68;48.792;9.164;2023-04-01T05:45:17;3.63;;;1.85;;
151;SDS011;68;48.792;9.164;2023-04-01T05:47:43;4.13;;;1.90;;
151;SDS011;68;48.792;9.164;2023-04-01T05:50:11;3.00;;;1.83;;
151;SDS011;68;48.792;9.164;2023-04-01T05:52:38;2.17;;;1.73;;
151;SDS011;68;48.792;9.164;2023-04-01T05:55:05;1.70;;;1.65;;
151;SDS011;68;48.792;9.164;2023-04-01T05:57:32;3.05;;;2.15;;
151;SDS011;68;48.792;9.164;2023-04-01T05:59:59;3.72;;;2.00;;
151;SDS011;68;48.792;9.164;2023-04-01T06:02:26;2.35;;;1.80;;
151;SDS011;68;48.792;9.164;2023-04-01T06:04:55;2.53;;;1.75;;
151;SDS011;68;48.792;9.164;2023-04-01T06:07:30;3.45;;;1.65;;
151;SDS011;68;48.792;9.164;2023-04-01T06:09:57;2.20;;;1.70;;
151;SDS011;68;48.792;9.164;2023-04-01T06:12:29;5.05;;;2.53;;
151;SDS011;68;48.792;9.164;2023-04-01T06:15:11;4.38;;;2.20;;
151;SDS011;68;48.792;9.164;2023-04-01T06:17:49;4.40;;;2.20;;
151;SDS011;68;48.792;9.164;2023-04-01T06:20:28;5.00;;;2.05;;
151;SDS011;68;48.792;9.164;2023-04-01T06:23:16;3.92;;;2.00;;
151;SDS011;68;48.792;9.164;2023-04-01T06:26:00;4.50;;;2.13;;
151;SDS011;68;48.792;9.164;2023-04-01T06:28:45;2.72;;;1.98;;
151;SDS011;68;48.792;9.164;2023-04-01T06:31:34;2.35;;;1.83;;
151;SDS011;68;48.792;9.164;2023-04-01T06:34:27;2.75;;;1.88;;
151;SDS011;68;48.792;9.164;2023-04-01T06:37:12;3.38;;;1.85;;
151;SDS011;68;48.792;9.164;2023-04-01T06:39:56;4.18;;;1.90;;
151;SDS011;68;48.792;9.164;2023-04-01T06:42:39;2.40;;;1.80;;
151;SDS011;68;48.792;9.164;2023-04-01T06:45:20;2.40;;;1.80;;
151;SDS011;68;48.792;9.164;2023-04-01T06:48:01;5.03;;;2.15;;
151;SDS011;68;48.792;9.164;2023-04-01T06:50:39;2.20;;;1.85;;
151;SDS011;68;48.792;9.164;2023-04-01T06:53:12;2.28;;;1.85;;
151;SDS011;68;48.792;9.164;2023-04-01T06:55:46;5.60;;;3.03;;
151;SDS011;68;48.792;9.164;2023-04-01T06:58:18;3.00;;;2.33;;
151;SDS011;68;48.792;9.164;2023-04-01T07:00:48;3.03;;;1.98;;
151;SDS011;68;48.792;9.164;2023-04-01T07:03:18;2.30;;;2.03;;
151;SDS011;68;48.792;9.164;2023-04-01T07:05:49;2.85;;;1.88;;
151;SDS011;68;48.792;9.164;2023-04-01T07:08:17;4.65;;;1.90;;
151;SDS011;68;48.792;9.164;2023-04-01T07:10:50;5.55;;;1.95;;
151;SDS011;68;48.792;9.164;2023-04-01T07:13:22;3.58;;;1.83;;
151;SDS011;68;48.792;9.164;2023-04-01T07:16:03;3.90;;;1.88;;
151;SDS011;68;48.792;9.164;2023-04-01T07:18:37;2.67;;;1.63;;
151;SDS011;68;48.792;9.164;2023-04-01T07:21:09;4.15;;;2.10;;
151;SDS011;68;48.792;9.164;2023-04-01T07:23:42;3.60;;;2.33;;
151;SDS011;68;48.792;9.164;2023-04-01T07:26:17;4.13;;;2.08;;
151;SDS011;68;48.792;9.164;2023-04-01T07:28:46;3.00;;;1.70;;
151;SDS011;68;48.792;9.164;2023-04-01T07:31:17;4.60;;;1.95;;
151;SDS011;68;48.792;9.164;2023-04-01T07:33:54;6.95;;;1.80;;
151;SDS011;68;48.792;9.164;2023-04-01T07:36:29;4.55;;;2.00;;
151;SDS011;68;48.792;9.164;2023-04-01T07:39:04;1.73;;;1.50;;
151;SDS011;68;48.792;9.164;2023-04-01T07:41:44;2.60;;;1.85;;
151;SDS011;68;48.792;9.164;2023-04-01T07:44:19;2.25;;;1.67;;
151;SDS011;68;48.792;9.164;2023-04-01T07:46:57;3.42;;;1.95;;
151;SDS011;68;48.792;9.164;2023-04-01T07:49:35;3.80;;;2.15;;
151;SDS011;68;48.792;9.164;2023-04-01T07:52:11;4.05;;;1.90;;
151;SDS011;68;48.792;9.164;2023-04-01T07:54:43;4.47;;;2.03;;
151;SDS011;68;48.792;9.164;2023-04-01T07:57:17;3.88;;;2.20;;
151;SDS011;68;48.792;9.164;2023-04-01T07:59:49;5.63;;;2.00;;
151;SDS011;68;48.792;9.164;2023-04-01T08:02:26;4.75;;;2.38;;
151;SDS011;68;48.792;9.164;2023-04-01T08:05:01;3.15;;;1.95;;
151;SDS011;68;48.792;9.164;2023-04-01T08:07:40;2.08;;;1.95;;
151;SDS011;68;48.792;9.164;2023-04-01T08:10:17;4.75;;;2.30;;
151;SDS011;68;48.792;9.164;2023-04-01T08:12:52;3.25;;;2.08;;
151;SDS011;68;48.792;9.164;2023-04-01T08:15:27;2.70;;;1.80;;
151;SDS011;68;48.792;9.164;2023-04-01T08:17:59;5.63;;;2.05;;
151;SDS011;68;48.792;9.164;2023-04-01T08:20:37;5.25;;;2.10;;
151;SDS011;68;48.792;9.164;2023-04-01T08:23:11;2.67;;;1.80;;
151;SDS011;68;48.792;9.164;2023-04-01T08:25:40;2.80;;;1.83;;
151;SDS011;68;48.792;9.164;2023-04-01T08:28:15;3.13;;;2.30;;
151;SDS011;68;48.792;9.164;2023-04-01T08:30:47;5.10;;;2.60;;
151;SDS011;68;48.792;9.164;2023-04-01T08:33:19;3.85;;;2.05;;
151;SDS011;68;48.792;9.164;2023-04-01T08:35:50;2.45;;;1.90;;
151;SDS011;68;48.792;9.164;2023-04-01T08:38:22;2.25;;;1.70;;
151;SDS011;68;48.792;9.164;2023-04-01T08:40:57;2.25;;;1.70;;
151;SDS011;68;48.792;9.164;2023-04-01T08:43:38;3.40;;;1.80;;
151;SDS011;68;48.792;9.164;2023-04-01T08:46:42;4.63;;;2.10;;
151;SDS011;68;48.792;9.164;2023-04-01T08:49:26;2.30;;;1.77;;
151;SDS011;68;48.792;9.164;2023-04-01T08:52:22;4.72;;;1.80;;
151;SDS011;68;48.792;9.164;2023-04-01T08:58:03;3.53;;;1.85;;
151;SDS011;68;48.792;9.164;2023-04-01T09:00:46;2.33;;;1.85;;
151;SDS011;68;48.792;9.164;2023-04-01T09:03:33;1.90;;;1.80;;
151;SDS011;68;48.792;9.164;2023-04-01T09:12:11;2.20;;;1.90;;
151;SDS011;68;48.792;9.164;2023-04-01T09:23:40;2.35;;;1.80;;
151;SDS011;68;48.792;9.164;2023-04-01T09:26:17;1.50;;;1.50;;
151;SDS011;68;48.792;9.164;2023-04-01T09:29:12;2.03;;;1.70;;
151;SDS011;68;48.792;9.164;2023-04-01T09:31:55;2.53;;;1.70;;
151;SDS011;68;48.792;9.164;2023-04-01T09:34:44;2.30;;;1.90;;
151;SDS011;68;48.792;9.164;2023-04-01T09:37:19;1.60;;;1.50;;
151;SDS011;68;48.792;9.164;2023-04-01T09:39:52;3.15;;;1.90;;
151;SDS011;68;48.792;9.164;2023-04-01T09:42:42;1.73;;;1.70;;
151;SDS011;68;48.792;9.164;2023-04-01T09:45:15;2.40;;;1.50;;
151;SDS011;68;48.792;9.164;2023-04-01T09:47:59;3.15;;;1.90;;
151;SDS011;68;48.792;9.164;2023-04-01T09:50:38;2.97;;;1.50;;
151;SDS011;68;48.792;9.164;2023-04-01T09:53:14;2.10;;;1.60;;
151;SDS011;68;48.792;9.164;2023-04-01T10:02:08;1.60;;;1.50;;
151;SDS011;68;48.792;9.164;2023-04-01T10:05:34;5.50;;;1.70;;
151;SDS011;68;48.792;9.164;2023-04-01T10:08:38;1.83;;;1.73;;
151;SDS011;68;48.792;9.164;2023-04-01T10:11:22;1.52;;;1.50;;
151;SDS011;68;48.792;9.164;2023-04-01T10:14:14;1.60;;;1.50;;
151;SDS011;68;48.792;9.164;2023-04-01T10:17:08;1.65;;;1.55;;
151;SDS011;68;48.792;9.164;2023-04-01T10:20:05;3.45;;;1.58;;
151;SDS011;68;48.792;9.164;2023-04-01T10:22:58;1.75;;;1.55;;
151;SDS011;68;48.792;9.164;2023-04-01T10:28:48;1.60;;;1.50;;
151;SDS011;68;48.792;9.164;2023-04-01T10:34:34;1.65;;;1.58;;
151;SDS011;68;48.792;9.164;2023-04-01T10:40:35;1.70;;;1.40;;
151;SDS011;68;48.792;9.164;2023-04-01T10:43:20;2.35;;;1.63;;
151;SDS011;68;48.792;9.164;2023-04-01T10:49:26;1.58;;;1.58;;
151;SDS011;68;48.792;9.164;2023-04-01T10:52:31;1.60;;;1.50;;
151;SDS011;68;48.792;9.164;2023-04-01T10:55:43;1.63;;;1.55;;
151;SDS011;68;48.792;9.164;2023-04-01T11:04:55;2.70;;;1.52;;
151;SDS011;68;48.792;9.164;2023-04-01T11:08:05;2.00;;;1.90;;
151;SDS011;68;48.792;9.164;2023-04-01T11:11:28;1.90;;;1.80;;
151;SDS011;68;48.792;9.164;2023-04-01T11:14:28;1.70;;;1.60;;
151;SDS011;68;48.792;9.164;2023-04-01T11:17:27;1.65;;;1.55;;
151;SDS011;68;48.792;9.164;2023-04-01T11:20:17;1.63;;;1.60;;
151;SDS011;68;48.792;9.164;2023-04-01T11:23:13;1.85;;;1.55;;
151;SDS011;68;48.792;9.164;2023-04-01T11:25:50;2.75;;;1.50;;
151;SDS011;68;48.792;9.164;2023-04-01T11:28:45;2.63;;;1.73;;
151;SDS011;68;48.792;9.164;2023-04-01T11:34:21;1.45;;;1.42;;
151;SDS011;68;48.792;9.164;2023-04-01T11:37:03;1.58;;;1.50;;
151;SDS011;68;48.792;9.164;2023-04-01T11:39:41;2.65;;;1.70;;
151;SDS011;68;48.792;9.164;2023-04-01T11:42:17;2.15;;;1.50;;
151;SDS011;68;48.792;9.164;2023-04-01T11:44:53;1.95;;;1.85;;
151;SDS011;68;48.792;9.164;2023-04-01T11:47:40;1.63;;;1.63;;
151;SDS011;68;48.792;9.164;2023-04-01T11:50:23;1.80;;;1.70;;
151;SDS011;68;48.792;9.164;2023-04-01T11:53:00;1.45;;;1.38;;
151;SDS011;68;48.792;9.164;2023-04-01T11:55:39;1.50;;;1.40;;
151;SDS011;68;48.792;9.164;2023-04-01T11:58:18;1.67;;;1.58;;
151;SDS011;68;48.792;9.164;2023-04-01T12:04:33;1.45;;;1.38;;
151;SDS011;68;48.792;9.164;2023-04-01T12:07:12;3.13;;;1.60;;
151;SDS011;68;48.792;9.164;2023-04-01T12:09:47;1.42;;;1.40;;
151;SDS011;68;48.792;9.164;2023-04-01T12:12:27;1.70;;;1.60;;
151;SDS011;68;48.792;9.164;2023-04-01T12:15:05;1.40;;;1.40;;
151;SDS011;68;48.792;9.164;2023-04-01T12:17:45;1.50;;;1.40;;
151;SDS011;68;48.792;9.164;2023-04-01T12:20:30;1.40;;;1.38;;
151;SDS011;68;48.792;9.164;2023-04-01T12:23:08;1.55;;;1.45;;
151;SDS011;68;48.792;9.164;2023-04-01T12:28:44;1.90;;;1.80;;
151;SDS011;68;48.792;9.164;2023-04-01T12:31:19;1.63;;;1.52;;
151;SDS011;68;48.792;9.164;2023-04-01T12:34:04;3.05;;;2.63;;
151;SDS011;68;48.792;9.164;2023-04-01T12:36:52;1.70;;;1.60;;
151;SDS011;68;48.792;9.164;2023-04-01T12:39:37;1.50;;;1.40;;
151;SDS011;68;48.792;9.164;2023-04-01T12:42:36;1.60;;;1.50;;
151;SDS011;68;48.792;9.164;2023-04-01T12:45:28;1.60;;;1.50;;
151;SDS011;68;48.792;9.164;2023-04-01T12:48:03;1.55;;;1.50;;
151;SDS011;68;48.792;9.164;2023-04-01T12:57:28;1.50;;;1.50;;
151;SDS011;68;48.792;9.164;2023-04-01T13:00:12;1.60;;;1.50;;
151;SDS011;68;48.792;9.164;2023-04-01T13:03:02;1.48;;;1.38;;
151;SDS011;68;48.792;9.164;2023-04-01T13:06:17;1.50;;;1.40;;
151;SDS011;68;48.792;9.164;2023-04-01T13:08:52;1.50;;;1.45;;
151;SDS011;68;48.792;9.164;2023-04-01T13:11:30;1.60;;;1.50;;
151;SDS011;68;48.792;9.164;2023-04-01T13:17:02;1.65;;;1.55;;
151;SDS011;68;48.792;9.164;2023-04-01T13:19:41;1.65;;;1.50;;
151;SDS011;68;48.792;9.164;2023-04-01T13:22:14;1.70;;;1.60;;
151;SDS011;68;48.792;9.164;2023-04-01T13:24:49;1.60;;;1.58;;
151;SDS011;68;48.792;9.164;2023-04-01T13:27:24;1.60;;;1.50;;
151;SDS011;68;48.792;9.164;2023-04-01T13:30:03;1.60;;;1.50;;
151;SDS011;68;48.792;9.164;2023-04-01T13:32:45;1.60;;;1.50;;
151;SDS011;68;48.792;9.164;2023-04-01T13:35:18;1.70;;;1.60;;
151;SDS011;68;48.792;9.164;2023-04-01T13:37:54;1.50;;;1.40;;
151;SDS011;68;48.792;9.164;2023-04-01T13:40:39;1.50;;;1.40;;
151;SDS011;68;48.792;9.164;2023-04-01T13:43:15;1.52;;;1.42;;
151;SDS011;68;48.792;9.164;2023-04-01T13:45:55;1.58;;;1.52;;
151;SDS011;68;48.792;9.164;2023-04-01T13:48:36;1.55;;;1.45;;
151;SDS011;68;48.792;9.164;2023-04-01T13:51:28;1.60;;;1.50;;
151;SDS011;68;48.792;9.164;2023-04-01T13:54:16;1.60;;;1.50;;
151;SDS011;68;48.792;9.164;2023-04-01T13:57:07;1.60;;;1.50;;
151;SDS011;68;48.792;9.164;2023-04-01T13:59:51;1.40;;;1.40;;
151;SDS011;68;48.792;9.164;2023-04-01T14:02:51;1.30;;;1.30;;
151;SDS011;68;48.792;9.164;2023-04-01T14:05:49;1.70;;;1.58;;
151;SDS011;68;48.792;9.164;2023-04-01T14:08:27;1.50;;;1.40;;
151;SDS011;68;48.792;9.164;2023-04-01T14:11:10;1.50;;;1.40;;
151;SDS011;68;48.792;9.164;2023-04-01T14:13:43;1.60;;;1.50;;
151;SDS011;68;48.792;9.164;2023-04-01T14:16:28;1.40;;;1.30;;
151;SDS011;68;48.792;9.164;2023-04-01T14:19:21;1.50;;;1.40;;
151;SDS011;68;48.792;9.164;2023-04-01T14:21:58;1.45;;;1.38;;
151;SDS011;68;48.792;9.164;2023-04-01T14:24:42;1.70;;;1.50;;
151;SDS011;68;48.792;9.164;2023-04-01T14:27:23;1.70;;;1.60;;
151;SDS011;68;48.792;9.164;2023-04-01T14:30:01;1.38;;;1.30;;
151;SDS011;68;48.792;9.164;2023-04-01T14:32:47;2.88;;;1.52;;
151;SDS011;68;48.792;9.164;2023-04-01T14:35:29;2.15;;;1.50;;
151;SDS011;68;48.792;9.164;2023-04-01T14:38:10;1.90;;;1.80;;
151;SDS011;68;48.792;9.164;2023-04-01T14:40:56;1.60;;;1.50;;
151;SDS011;68;48.792;9.164;2023-04-01T14:43:42;1.50;;;1.50;;
151;SDS011;68;48.792;9.164;2023-04-01T14:46:22;2.25;;;1.50;;
151;SDS011;68;48.792;9.164;2023-04-01T14:48:59;1.52;;;1.42;;
151;SDS011;68;48.792;9.164;2023-04-01T14:51:32;1.50;;;1.40;;
151;SDS011;68;48.792;9.164;2023-04-01T14:54:04;1.83;;;1.70;;
151;SDS011;68;48.792;9.164;2023-04-01T14:56:35;1.60;;;1.50;;
151;SDS011;68;48.792;9.164;2023-04-01T14:59:08;1.50;;;1.40;;
151;SDS011;68;48.792;9.164;2023-04-01T15:01:40;3.05;;;1.60;;
151;SDS011;68;48.792;9.164;2023-04-01T15:07:20;1.70;;;1.60;;
151;SDS011;68;48.792;9.164;2023-04-01T15:09:59;2.38;;;1.70;;
151;SDS011;68;48.792;9.164;2023-04-01T15:12:33;1.50;;;1.50;;
151;SDS011;68;48.792;9.164;2023-04-01T15:15:12;2.05;;;1.50;;
151;SDS011;68;48.792;9.164;2023-04-01T15:17:52;1.67;;;1.58;;
151;SDS011;68;48.792;9.164;2023-04-01T15:20:51;2.10;;;1.50;;
151;SDS011;68;48.792;9.164;2023-04-01T15:23:34;1.60;;;1.50;;
151;SDS011;68;48.792;9.164;2023-04-01T15:26:20;1.60;;;1.50;;
151;SDS011;68;48.792;9.164;2023-04-01T15:28:59;1.67;;;1.40;;
151;SDS011;68;48.792;9.164;2023-04-01T15:31:36;1.50;;;1.40;;
151;SDS011;68;48.792;9.164;2023-04-01T15:34:20;1.50;;;1.40;;
151;SDS011;68;48.792;9.164;2023-04-01T15:36:57;1.60;;;1.50;;
151;SDS011;68;48.792;9.164;2023-04-01T15:39:36;1.60;;;1.50;;
151;SDS011;68;48.792;9.164;2023-04-01T15:42:16;1.58;;;1.50;;
151;SDS011;68;48.792;9.164;2023-04-01T15:44:58;2.42;;;1.50;;
151;SDS011;68;48.792;9.164;2023-04-01T15:47:33;3.15;;;1.40;;
151;SDS011;68;48.792;9.164;2023-04-01T15:50:18;1.80;;;1.40;;
151;SDS011;68;48.792;9.164;2023-04-01T15:53:01;2.08;;;1.75;;
151;SDS011;68;48.792;9.164;2023-04-01T15:55:39;1.50;;;1.40;;
151;SDS011;68;48.792;9.164;2023-04-01T15:58:17;1.50;;;1.40;;
151;SDS011;68;48.792;9.164;2023-04-01T16:00:56;1.55;;;1.45;;
151;SDS011;68;48.792;9.164;2023-04-01T16:03:37;1.58;;;1.50;;
151;SDS011;68;48.792;9.164;2023-04-01T16:06:14;1.58;;;1.48;;
151;SDS011;68;48.792;9.164;2023-04-01T16:11:45;1.92;;;1.80;;
151;SDS011;68;48.792;9.164;2023-04-01T16:14:20;2.80;;;1.60;;
151;SDS011;68;48.792;9.164;2023-04-01T16:16:58;1.40;;;1.40;;
151;SDS011;68;48.792;9.164;2023-04-01T16:19:40;1.80;;;1.60;;
151;SDS011;68;48.792;9.164;2023-04-01T16:22:16;1.73;;;1.63;;
151;SDS011;68;48.792;9.164;2023-04-01T16:24:51;2.13;;;1.80;;
151;SDS011;68;48.792;9.164;2023-04-01T16:27:27;1.50;;;1.40;;
151;SDS011;68;48.792;9.164;2023-04-01T16:30:00;2.13;;;1.50;;
151;SDS011;68;48.792;9.164;2023-04-01T16:32:37;1.60;;;1.50;;
151;SDS011;68;48.792;9.164;2023-04-01T16:35:16;1.77;;;1.50;;
151;SDS011;68;48.792;9.164;2023-04-01T16:37:52;3.25;;;1.60;;
151;SDS011;68;48.792;9.164;2023-04-01T16:40:25;1.67;;;1.40;;
151;SDS011;68;48.792;9.164;2023-04-01T16:43:10;1.70;;;1.60;;
151;SDS011;68;48.792;9.164;2023-04-01T16:45:42;2.47;;;1.80;;
151;SDS011;68;48.792;9.164;2023-04-01T16:48:13;1.75;;;1.65;;
151;SDS011;68;48.792;9.164;2023-04-01T16:50:43;2.17;;;2.00;;
151;SDS011;68;48.792;9.164;2023-04-01T16:53:19;1.77;;;1.70;;
151;SDS011;68;48.792;9.164;2023-04-01T16:56:02;2.03;;;1.77;;
151;SDS011;68;48.792;9.164;2023-04-01T16:58:36;1.70;;;1.58;;
151;SDS011;68;48.792;9.164;2023-04-01T17:01:06;1.67;;;1.65;;
151;SDS011;68;48.792;9.164;2023-04-01T17:03:39;1.90;;;1.90;;
151;SDS011;68;48.792;9.164;2023-04-01T17:06:21;2.30;;;1.70;;
151;SDS011;68;48.792;9.164;2023-04-01T17:12:01;2.20;;;1.80;;
151;SDS011;68;48.792;9.164;2023-04-01T17:14:40;2.53;;;1.92;;
151;SDS011;68;48.792;9.164;2023-04-01T17:17:15;3.03;;;2.00;;
151;SDS011;68;48.792;9.164;2023-04-01T17:19:55;2.67;;;1.70;;
151;SDS011;68;48.792;9.164;2023-04-01T17:22:32;2.10;;;1.92;;
151;SDS011;68;48.792;9.164;2023-04-01T17:25:09;4.50;;;2.38;;
151;SDS011;68;48.792;9.164;2023-04-01T17:27:52;2.17;;;2.00;;
151;SDS011;68;48.792;9.164;2023-04-01T17:30:26;5.65;;;1.90;;
151;SDS011;68;48.792;9.164;2023-04-01T17:33:03;4.47;;;2.10;;
151;SDS011;68;48.792;9.164;2023-04-01T17:35:50;2.00;;;1.90;;
151;SDS011;68;48.792;9.164;2023-04-01T17:38:34;2.58;;;2.05;;
151;SDS011;68;48.792;9.164;2023-04-01T17:41:24;3.65;;;2.20;;
151;SDS011;68;48.792;9.164;2023-04-01T17:43:58;1.90;;;1.90;;
151;SDS011;68;48.792;9.164;2023-04-01T17:46:37;2.00;;;1.90;;
151;SDS011;68;48.792;9.164;2023-04-01T17:49:17;2.20;;;2.00;;
151;SDS011;68;48.792;9.164;2023-04-01T17:51:52;2.30;;;1.83;;
151;SDS011;68;48.792;9.164;2023-04-01T17:54:27;4.03;;;2.00;;
151;SDS011;68;48.792;9.164;2023-04-01T17:57:06;2.15;;;1.70;;
151;SDS011;68;48.792;9.164;2023-04-01T17:59:52;1.95;;;1.75;;
151;SDS011;68;48.792;9.164;2023-04-01T18:02:28;3.63;;;2.00;;
151;SDS011;68;48.792;9.164;2023-04-01T18:05:12;2.80;;;1.90;;
151;SDS011;68;48.792;9.164;2023-04-01T18:08:05;4.53;;;2.10;;
151;SDS011;68;48.792;9.164;2023-04-01T18:10:49;3.40;;;2.13;;